createdAt,value
2023-04-10T00:00:15.121Z,73.33
2023-04-10T00:01:15.083Z,73.64
2023-04-10T00:02:15.159Z,73.94
2023-04-10T00:03:15.327Z,74.29
2023-04-10T00:04:15.427Z,74.50
2023-04-10T00:05:15.282Z,74.60
2023-04-10T00:06:15.050Z,74.71
2023-04-10T00:07:14.999Z,74.60
2023-04-10T00:08:14.985Z,74.26
2023-04-10T00:09:14.983Z,73.94
2023-04-10T00:10:14.980Z,73.84
2023-04-10T00:11:14.964Z,73.94
2023-04-10T00:12:14.981Z,74.08
2023-04-10T00:13:14.961Z,74.40
2023-04-10T00:14:14.958Z,74.74
2023-04-10T00:15:14.936Z,74.95
2023-04-10T00:16:15.020Z,75.05
2023-04-10T00:17:14.940Z,74.84
2023-04-10T00:18:14.929Z,74.84
2023-04-10T00:19:15.029Z,74.74
2023-04-10T00:20:14.893Z,74.74
2023-04-10T00:21:14.878Z,74.63
2023-04-10T00:22:14.849Z,74.53
2023-04-10T00:23:14.868Z,74.84
2023-04-10T00:24:14.830Z,74.74
2023-04-10T00:25:14.824Z,74.95
2023-04-10T00:26:14.812Z,74.95
2023-04-10T00:27:14.814Z,74.84
2023-04-10T00:28:14.801Z,74.95
2023-04-10T00:29:14.800Z,74.95
2023-04-10T00:30:14.763Z,75.05
2023-04-10T00:31:14.758Z,75.26
2023-04-10T00:32:14.803Z,75.50
2023-04-10T00:33:14.764Z,75.81
2023-04-10T00:34:14.737Z,75.92
2023-04-10T00:35:14.752Z,76.12
2023-04-10T00:36:14.745Z,76.36
2023-04-10T00:37:14.716Z,76.67
2023-04-10T00:38:14.708Z,77.09
2023-04-10T00:39:14.684Z,77.19
2023-04-10T00:40:14.720Z,77.09
2023-04-10T00:41:14.678Z,76.98
2023-04-10T00:42:14.651Z,76.78
2023-04-10T00:43:14.659Z,76.78
2023-04-10T00:44:14.652Z,76.78
2023-04-10T00:45:14.657Z,76.57
2023-04-10T00:46:14.863Z,76.57
2023-04-10T00:47:14.625Z,76.36
2023-04-10T00:48:14.587Z,76.46
2023-04-10T00:49:14.591Z,76.46
2023-04-10T00:50:14.591Z,76.46
2023-04-10T00:51:14.564Z,76.36
2023-04-10T00:52:14.563Z,76.26
2023-04-10T00:53:14.549Z,76.15
2023-04-10T00:54:14.541Z,76.05
2023-04-10T00:55:14.540Z,75.95
2023-04-10T00:56:14.524Z,75.95
2023-04-10T00:57:14.530Z,75.84
2023-04-10T00:58:14.592Z,75.84
2023-04-10T00:59:14.494Z,75.95
2023-04-10T01:00:14.479Z,76.05
2023-04-10T01:01:14.500Z,75.95
2023-04-10T01:02:14.571Z,75.84
2023-04-10T01:03:14.699Z,76.36
2023-04-10T01:04:14.541Z,76.57
2023-04-10T01:05:14.435Z,76.78
2023-04-10T01:06:14.400Z,76.78
2023-04-10T01:07:14.404Z,76.78
2023-04-10T01:08:14.400Z,76.78
2023-04-10T01:09:14.387Z,75.74
2023-04-10T01:10:14.383Z,76.26
2023-04-10T01:11:14.386Z,76.67
2023-04-10T01:12:14.351Z,76.46
2023-04-10T01:13:14.361Z,76.88
2023-04-10T01:14:14.360Z,77.02
2023-04-10T01:15:14.350Z,77.33
2023-04-10T01:16:14.352Z,77.75
2023-04-10T01:17:14.339Z,78.06
2023-04-10T01:18:14.313Z,78.30
2023-04-10T01:19:14.286Z,78.41
2023-04-10T01:20:14.340Z,78.41
2023-04-10T01:21:14.282Z,78.51
2023-04-10T01:22:14.263Z,78.72
2023-04-10T01:23:14.266Z,78.92
2023-04-10T01:24:14.262Z,78.96
2023-04-10T01:25:14.216Z,78.96
2023-04-10T01:26:14.260Z,78.96
2023-04-10T01:27:14.203Z,78.86
2023-04-10T01:28:14.192Z,78.86
2023-04-10T01:29:14.221Z,79.06
2023-04-10T01:30:14.184Z,79.06
2023-04-10T01:31:14.214Z,79.06
2023-04-10T01:32:14.161Z,79.27
2023-04-10T01:33:14.162Z,79.58
2023-04-10T01:34:14.175Z,79.69
2023-04-10T01:35:14.152Z,79.90
2023-04-10T01:36:14.117Z,79.90
2023-04-10T01:37:14.130Z,80.00
2023-04-10T01:38:14.086Z,80.14
2023-04-10T01:39:14.103Z,80.00
2023-04-10T01:40:14.087Z,80.00
2023-04-10T01:41:14.113Z,80.00
2023-04-10T01:42:14.072Z,79.69
2023-04-10T01:43:14.052Z,79.48
2023-04-10T01:44:14.041Z,79.38
2023-04-10T01:45:14.034Z,78.96
2023-04-10T01:46:14.026Z,78.86
2023-04-10T01:47:14.482Z,78.75
2023-04-10T01:48:13.986Z,78.65
2023-04-10T01:49:13.993Z,78.55
2023-04-10T01:50:13.986Z,78.65
2023-04-10T01:51:13.978Z,78.55
2023-04-10T01:52:13.971Z,78.75
2023-04-10T01:53:13.987Z,79.06
2023-04-10T01:54:13.943Z,79.27
2023-04-10T01:55:13.942Z,79.38
2023-04-10T01:56:13.973Z,78.96
2023-04-10T01:57:13.916Z,78.96
2023-04-10T01:58:14.068Z,79.27
2023-04-10T01:59:13.889Z,79.48
2023-04-10T02:00:13.921Z,79.17
2023-04-10T02:01:22.443Z,78.96
2023-04-10T02:02:13.964Z,78.86
2023-04-10T02:03:14.113Z,79.06
2023-04-10T02:04:13.975Z,79.27
2023-04-10T02:05:13.826Z,78.96
2023-04-10T02:06:13.829Z,78.72
2023-04-10T02:07:13.844Z,78.82
2023-04-10T02:08:13.808Z,78.82
2023-04-10T02:09:13.815Z,78.86
2023-04-10T02:10:13.798Z,79.06
2023-04-10T02:11:13.776Z,79.27
2023-04-10T02:12:13.775Z,79.48
2023-04-10T02:13:13.749Z,79.69
2023-04-10T02:14:13.737Z,79.90
2023-04-10T02:15:13.839Z,80.00
2023-04-10T02:16:13.803Z,79.90
2023-04-10T02:17:13.708Z,80.00
2023-04-10T02:18:13.700Z,80.10
2023-04-10T02:19:13.687Z,80.00
2023-04-10T02:20:13.719Z,80.00
2023-04-10T02:21:13.680Z,79.90
2023-04-10T02:22:13.664Z,79.90
2023-04-10T02:23:13.680Z,79.90
2023-04-10T02:24:13.643Z,79.69
2023-04-10T02:25:13.643Z,79.17
2023-04-10T02:26:13.649Z,79.27
2023-04-10T02:27:13.610Z,78.86
2023-04-10T02:28:13.619Z,78.13
2023-04-10T02:29:13.586Z,78.44
2023-04-10T02:30:13.573Z,78.65
2023-04-10T02:31:13.631Z,78.96
2023-04-10T02:32:13.550Z,79.06
2023-04-10T02:33:13.546Z,79.30
2023-04-10T02:34:13.550Z,79.51
2023-04-10T02:35:13.542Z,79.72
2023-04-10T02:36:13.536Z,79.83
2023-04-10T02:37:13.557Z,80.04
2023-04-10T02:38:15.569Z,80.04
2023-04-10T02:39:13.490Z,80.14
2023-04-10T02:40:13.488Z,79.93
2023-04-10T02:41:13.466Z,79.72
2023-04-10T02:42:13.472Z,80.04
2023-04-10T02:43:13.493Z,80.04
2023-04-10T02:44:13.476Z,80.07
2023-04-10T02:45:13.435Z,80.07
2023-04-10T02:46:13.457Z,80.07
2023-04-10T02:47:13.409Z,80.18
2023-04-10T02:48:13.434Z,80.28
2023-04-10T02:49:13.398Z,80.49
2023-04-10T02:50:13.400Z,80.90
2023-04-10T02:51:13.379Z,81.11
2023-04-10T02:52:13.373Z,81.52
2023-04-10T02:53:13.390Z,81.84
2023-04-10T02:54:13.338Z,81.87
2023-04-10T02:55:13.316Z,81.87
2023-04-10T02:56:13.310Z,81.77
2023-04-10T02:57:13.305Z,81.67
2023-04-10T02:58:15.052Z,81.56
2023-04-10T02:59:13.334Z,81.56
2023-04-10T03:00:13.295Z,81.46
2023-04-10T03:01:13.279Z,81.46
2023-04-10T03:02:13.355Z,81.35
2023-04-10T03:03:13.343Z,81.15
2023-04-10T03:04:13.479Z,81.04
2023-04-10T03:05:13.230Z,81.04
2023-04-10T03:06:13.242Z,81.04
2023-04-10T03:07:13.219Z,81.25
2023-04-10T03:08:13.202Z,81.46
2023-04-10T03:09:13.228Z,81.46
2023-04-10T03:10:13.194Z,81.35
2023-04-10T03:11:13.177Z,81.04
2023-04-10T03:12:13.164Z,80.73
2023-04-10T03:13:13.164Z,80.73
2023-04-10T03:14:13.152Z,80.83
2023-04-10T03:15:13.162Z,80.83
2023-04-10T03:16:13.207Z,80.52
2023-04-10T03:17:13.110Z,80.63
2023-04-10T03:18:13.158Z,80.42
2023-04-10T03:19:13.073Z,80.52
2023-04-10T03:20:13.092Z,81.15
2023-04-10T03:21:13.088Z,81.35
2023-04-10T03:22:13.048Z,81.56
2023-04-10T03:23:13.051Z,81.35
2023-04-10T03:24:13.037Z,81.56
2023-04-10T03:25:13.024Z,81.67
2023-04-10T03:26:13.063Z,81.67
2023-04-10T03:27:13.066Z,81.25
2023-04-10T03:28:13.006Z,80.94
2023-04-10T03:29:12.994Z,81.35
2023-04-10T03:30:13.002Z,81.56
2023-04-10T03:31:13.024Z,81.87
2023-04-10T03:32:12.976Z,82.08
2023-04-10T03:33:12.998Z,82.08
2023-04-10T03:34:12.944Z,82.32
2023-04-10T03:35:12.924Z,82.53
2023-04-10T03:36:12.936Z,82.74
2023-04-10T03:37:12.967Z,82.95
2023-04-10T03:38:12.946Z,83.26
2023-04-10T03:39:12.899Z,83.47
2023-04-10T03:40:12.895Z,83.47
2023-04-10T03:41:12.860Z,83.47
2023-04-10T03:42:12.882Z,83.26
2023-04-10T03:43:12.857Z,82.95
2023-04-10T03:44:12.874Z,82.74
2023-04-10T03:45:12.826Z,82.43
2023-04-10T03:46:12.826Z,82.22
2023-04-10T03:47:12.801Z,82.12
2023-04-10T03:48:12.805Z,82.12
2023-04-10T03:49:12.805Z,82.32
2023-04-10T03:50:13.197Z,82.32
2023-04-10T03:51:12.780Z,82.43
2023-04-10T03:52:12.780Z,82.12
2023-04-10T03:53:12.759Z,81.91
2023-04-10T03:54:12.741Z,81.60
2023-04-10T03:55:12.732Z,81.29
2023-04-10T03:56:12.766Z,81.18
2023-04-10T03:57:12.721Z,81.18
2023-04-10T03:58:12.708Z,81.18
2023-04-10T03:59:12.703Z,81.43
2023-04-10T04:00:12.682Z,82.26
2023-04-10T04:01:12.663Z,82.89
2023-04-10T04:02:12.746Z,83.44
2023-04-10T04:03:13.075Z,84.06
2023-04-10T04:04:12.786Z,84.17
2023-04-10T04:05:12.779Z,84.38
2023-04-10T04:06:12.636Z,84.48
2023-04-10T04:07:12.609Z,84.38
2023-04-10T04:08:12.637Z,84.59
2023-04-10T04:09:12.590Z,84.94
2023-04-10T04:10:12.579Z,85.25
2023-04-10T04:11:12.559Z,85.56
2023-04-10T04:12:12.566Z,85.88
2023-04-10T04:13:12.561Z,86.08
2023-04-10T04:14:12.574Z,86.08
2023-04-10T04:15:12.552Z,85.77
2023-04-10T04:16:12.623Z,85.56
2023-04-10T04:17:12.521Z,85.35
2023-04-10T04:18:12.505Z,84.90
2023-04-10T04:19:12.501Z,84.48
2023-04-10T04:20:12.521Z,83.96
2023-04-10T04:21:12.470Z,83.86
2023-04-10T04:22:12.464Z,83.75
2023-04-10T04:23:12.448Z,83.86
2023-04-10T04:24:12.430Z,83.65
2023-04-10T04:25:12.430Z,83.65
2023-04-10T04:26:12.461Z,83.54
2023-04-10T04:27:12.396Z,83.54
2023-04-10T04:28:12.392Z,83.65
2023-04-10T04:29:12.406Z,83.75
2023-04-10T04:30:12.403Z,83.75
2023-04-10T04:31:12.413Z,83.44
2023-04-10T04:32:12.427Z,83.03
2023-04-10T04:33:12.355Z,83.03
2023-04-10T04:34:12.357Z,83.03
2023-04-10T04:35:12.333Z,83.23
2023-04-10T04:36:12.348Z,83.23
2023-04-10T04:37:12.336Z,83.34
2023-04-10T04:38:12.319Z,83.34
2023-04-10T04:39:12.278Z,83.54
2023-04-10T04:40:12.308Z,83.65
2023-04-10T04:41:12.294Z,83.86
2023-04-10T04:42:12.285Z,84.17
2023-04-10T04:43:12.295Z,84.17
2023-04-10T04:44:12.271Z,84.27
2023-04-10T04:45:12.229Z,84.38
2023-04-10T04:46:12.270Z,84.27
2023-04-10T04:47:12.213Z,84.06
2023-04-10T04:48:12.240Z,83.82
2023-04-10T04:49:12.195Z,83.61
2023-04-10T04:50:12.189Z,83.65
2023-04-10T04:51:12.180Z,83.51
2023-04-10T04:52:12.169Z,83.61
2023-04-10T04:53:12.162Z,83.72
2023-04-10T04:54:12.215Z,83.61
2023-04-10T04:55:12.144Z,83.40
2023-04-10T04:56:12.161Z,83.40
2023-04-10T04:57:12.135Z,83.40
2023-04-10T04:58:12.126Z,83.20
2023-04-10T04:59:12.107Z,82.78
2023-04-10T05:00:12.124Z,82.57
2023-04-10T05:01:12.137Z,82.46
2023-04-10T05:02:12.101Z,82.57
2023-04-10T05:03:12.136Z,82.68
2023-04-10T05:04:12.069Z,82.46
2023-04-10T05:05:12.030Z,82.36
2023-04-10T05:06:12.082Z,82.78
2023-04-10T05:07:12.005Z,83.20
2023-04-10T05:08:12.004Z,83.40
2023-04-10T05:09:11.996Z,83.61
2023-04-10T05:10:12.011Z,83.82
2023-04-10T05:11:11.975Z,84.03
2023-04-10T05:12:11.973Z,84.13
2023-04-10T05:13:11.949Z,84.13
2023-04-10T05:14:11.952Z,84.03
2023-04-10T05:15:11.918Z,84.03
2023-04-10T05:16:11.966Z,83.92
2023-04-10T05:17:11.897Z,83.92
2023-04-10T05:18:11.953Z,84.03
2023-04-10T05:19:11.887Z,83.92
2023-04-10T05:20:11.880Z,83.82
2023-04-10T05:21:11.864Z,83.61
2023-04-10T05:22:11.886Z,83.40
2023-04-10T05:23:11.857Z,83.30
2023-04-10T05:24:11.843Z,83.26
2023-04-10T05:25:11.861Z,83.47
2023-04-10T05:26:11.840Z,83.47
2023-04-10T05:27:11.883Z,83.58
2023-04-10T05:28:11.818Z,83.58
2023-04-10T05:29:11.796Z,83.47
2023-04-10T05:30:11.785Z,83.47
2023-04-10T05:31:11.880Z,83.37
2023-04-10T05:32:11.814Z,83.37
2023-04-10T05:33:11.766Z,83.58
2023-04-10T05:34:11.779Z,83.47
2023-04-10T05:35:11.716Z,83.43
2023-04-10T05:36:11.751Z,83.43
2023-04-10T05:37:11.717Z,83.68
2023-04-10T05:38:11.732Z,83.99
2023-04-10T05:39:11.689Z,84.30
2023-04-10T05:40:11.697Z,84.51
2023-04-10T05:41:11.679Z,84.92
2023-04-10T05:42:11.701Z,85.38
2023-04-10T05:43:11.688Z,85.69
2023-04-10T05:44:11.652Z,85.90
2023-04-10T05:45:11.637Z,85.90
2023-04-10T05:46:11.729Z,85.80
2023-04-10T05:47:11.618Z,85.65
2023-04-10T05:48:11.617Z,85.44
2023-04-10T05:49:11.632Z,85.44
2023-04-10T05:50:11.621Z,85.34
2023-04-10T05:51:11.580Z,85.44
2023-04-10T05:52:11.585Z,85.44
2023-04-10T05:53:11.558Z,85.55
2023-04-10T05:54:11.555Z,85.44
2023-04-10T05:55:11.593Z,85.34
2023-04-10T05:56:11.543Z,85.24
2023-04-10T05:57:11.532Z,85.24
2023-04-10T05:58:11.533Z,85.20
2023-04-10T05:59:11.615Z,85.20
2023-04-10T06:00:11.531Z,85.30
2023-04-10T06:01:11.515Z,85.30
2023-04-10T06:02:11.503Z,85.20
2023-04-10T06:03:11.528Z,85.30
2023-04-10T06:04:11.572Z,85.41
2023-04-10T06:05:11.476Z,85.51
2023-04-10T06:06:11.459Z,85.41
2023-04-10T06:07:11.481Z,85.51
2023-04-10T06:08:11.404Z,85.41
2023-04-10T06:09:11.416Z,85.61
2023-04-10T06:10:11.394Z,85.41
2023-04-10T06:11:11.378Z,85.26
2023-04-10T06:12:11.394Z,85.26
2023-04-10T06:13:11.493Z,85.36
2023-04-10T06:14:11.355Z,85.36
2023-04-10T06:15:11.562Z,85.36
2023-04-10T06:16:11.373Z,85.12
2023-04-10T06:17:11.472Z,85.02
2023-04-10T06:18:11.302Z,84.91
2023-04-10T06:19:11.312Z,84.70
2023-04-10T06:20:11.311Z,84.56
2023-04-10T06:21:11.285Z,84.46
2023-04-10T06:22:11.261Z,84.36
2023-04-10T06:23:11.299Z,84.05
2023-04-10T06:24:12.789Z,84.05
2023-04-10T06:25:11.263Z,84.05
2023-04-10T06:26:11.231Z,84.05
2023-04-10T06:27:11.208Z,84.25
2023-04-10T06:28:11.265Z,84.36
2023-04-10T06:29:11.215Z,84.46
2023-04-10T06:30:11.213Z,84.56
2023-04-10T06:31:11.179Z,84.77
2023-04-10T06:32:11.155Z,85.08
2023-04-10T06:33:11.174Z,84.98
2023-04-10T06:34:11.190Z,84.77
2023-04-10T06:35:11.172Z,84.98
2023-04-10T06:36:11.216Z,85.19
2023-04-10T06:37:11.127Z,85.39
2023-04-10T06:38:11.101Z,85.50
2023-04-10T06:39:11.091Z,85.35
2023-04-10T06:40:11.118Z,85.25
2023-04-10T06:41:11.097Z,85.14
2023-04-10T06:42:11.060Z,85.25
2023-04-10T06:43:11.061Z,85.04
2023-04-10T06:44:11.046Z,84.94
2023-04-10T06:45:11.116Z,84.63
2023-04-10T06:46:11.031Z,84.48
2023-04-10T06:47:11.092Z,84.90
2023-04-10T06:48:11.021Z,84.80
2023-04-10T06:49:11.004Z,84.80
2023-04-10T06:50:11.019Z,84.55
2023-04-10T06:51:11.014Z,84.13
2023-04-10T06:52:10.983Z,84.13
2023-04-10T06:53:10.968Z,84.23
2023-04-10T06:54:10.943Z,84.23
2023-04-10T06:55:10.968Z,84.23
2023-04-10T06:56:11.425Z,84.30
2023-04-10T06:57:11.110Z,84.20
2023-04-10T06:58:10.922Z,84.09
2023-04-10T06:59:10.905Z,83.99
2023-04-10T07:00:10.942Z,83.75
2023-04-10T07:01:10.926Z,83.64
2023-04-10T07:02:10.958Z,83.64
2023-04-10T07:03:10.941Z,83.75
2023-04-10T07:04:10.918Z,83.95
2023-04-10T07:05:10.858Z,84.06
2023-04-10T07:06:10.873Z,84.16
2023-04-10T07:07:10.829Z,84.01
2023-04-10T07:08:10.820Z,83.91
2023-04-10T07:09:10.799Z,84.01
2023-04-10T07:10:10.830Z,83.71
2023-04-10T07:11:10.793Z,83.67
2023-04-10T07:12:10.790Z,83.56
2023-04-10T07:13:10.779Z,83.05
2023-04-10T07:14:10.763Z,83.22
2023-04-10T07:15:10.744Z,83.01
2023-04-10T07:16:10.772Z,82.70
2023-04-10T07:17:10.735Z,82.50
2023-04-10T07:18:10.760Z,82.25
2023-04-10T07:19:10.715Z,82.15
2023-04-10T07:20:10.690Z,81.73
2023-04-10T07:21:10.692Z,81.73
2023-04-10T07:22:10.672Z,81.80
2023-04-10T07:23:10.683Z,81.80
2023-04-10T07:24:10.703Z,81.90
2023-04-10T07:25:10.645Z,81.80
2023-04-10T07:26:10.616Z,81.45
2023-04-10T07:27:10.626Z,81.24
2023-04-10T07:28:10.609Z,81.14
2023-04-10T07:29:10.601Z,81.24
2023-04-10T07:30:12.979Z,81.24
2023-04-10T07:31:10.675Z,81.14
2023-04-10T07:32:10.761Z,80.93
2023-04-10T07:33:10.715Z,80.28
2023-04-10T07:34:10.566Z,80.18
2023-04-10T07:35:10.587Z,80.18
2023-04-10T07:36:10.643Z,79.86
2023-04-10T07:37:10.528Z,79.66
2023-04-10T07:38:10.509Z,79.76
2023-04-10T07:39:10.523Z,79.72
2023-04-10T07:40:10.523Z,79.93
2023-04-10T07:41:10.529Z,79.41
2023-04-10T07:42:10.459Z,78.97
2023-04-10T07:43:10.475Z,79.07
2023-04-10T07:44:10.437Z,78.76
2023-04-10T07:45:10.429Z,78.62
2023-04-10T07:46:10.463Z,78.62
2023-04-10T07:47:10.436Z,78.62
2023-04-10T07:48:10.400Z,78.00
2023-04-10T07:49:10.412Z,77.48
2023-04-10T07:50:10.410Z,77.55
2023-04-10T07:51:10.390Z,77.35
2023-04-10T07:52:10.418Z,76.93
2023-04-10T07:53:10.352Z,77.00
2023-04-10T07:54:10.337Z,76.49
2023-04-10T07:55:10.349Z,76.28
2023-04-10T07:56:10.316Z,75.63
2023-04-10T07:57:10.337Z,75.63
2023-04-10T07:58:10.341Z,75.12
2023-04-10T07:59:10.304Z,75.12
2023-04-10T08:00:10.297Z,75.01
2023-04-10T08:01:10.293Z,75.08
2023-04-10T08:02:10.370Z,74.36
2023-04-10T08:03:10.694Z,74.36
2023-04-10T08:04:10.451Z,74.43
2023-04-10T08:05:10.302Z,74.12
2023-04-10T08:06:10.222Z,73.40
2023-04-10T08:07:10.245Z,73.47
2023-04-10T08:08:10.196Z,72.89
2023-04-10T08:09:10.218Z,73.16
2023-04-10T08:10:10.186Z,73.16
2023-04-10T08:11:10.174Z,72.75
2023-04-10T08:12:10.153Z,72.65
2023-04-10T08:13:10.165Z,72.85
2023-04-10T08:14:10.184Z,72.55
2023-04-10T08:15:10.160Z,72.44
2023-04-10T08:16:10.179Z,72.44
2023-04-10T08:17:10.187Z,72.82
2023-04-10T08:18:10.112Z,72.20
2023-04-10T08:19:10.109Z,72.10
2023-04-10T08:20:10.122Z,72.00
2023-04-10T08:21:10.073Z,71.59
2023-04-10T08:22:10.051Z,71.69
2023-04-10T08:23:19.932Z,72.00
2023-04-10T08:24:10.044Z,71.86
2023-04-10T08:25:10.086Z,71.25
2023-04-10T08:26:10.038Z,70.84
2023-04-10T08:27:10.038Z,71.14
2023-04-10T08:28:10.006Z,71.11
2023-04-10T08:29:09.994Z,70.70
2023-04-10T08:30:09.977Z,70.39
2023-04-10T08:31:10.028Z,70.80
2023-04-10T08:32:10.011Z,70.29
2023-04-10T08:33:09.949Z,70.05
2023-04-10T08:34:09.949Z,70.05
2023-04-10T08:35:09.945Z,69.54
2023-04-10T08:36:09.990Z,69.10
2023-04-10T08:37:11.865Z,68.79
2023-04-10T08:38:13.996Z,68.79
2023-04-10T08:39:09.906Z,68.27
2023-04-10T08:40:09.896Z,68.07
2023-04-10T08:41:09.895Z,68.35
2023-04-10T08:42:09.862Z,68.45
2023-04-10T08:43:09.876Z,68.45
2023-04-10T08:44:09.853Z,68.55
2023-04-10T08:45:09.857Z,68.04
2023-04-10T08:46:09.936Z,67.11
2023-04-10T08:47:09.812Z,67.11
2023-04-10T08:48:09.818Z,66.81
2023-04-10T08:49:09.802Z,67.19
2023-04-10T08:50:09.777Z,67.19
2023-04-10T08:51:15.504Z,67.19
2023-04-10T08:52:09.808Z,64.09
2023-04-10T08:53:09.763Z,63.88
2023-04-10T08:54:09.799Z,63.78
2023-04-10T08:55:09.742Z,62.32
2023-04-10T08:56:09.731Z,62.01
2023-04-10T08:57:11.048Z,62.01
2023-04-10T08:58:09.700Z,62.08
2023-04-10T08:59:09.703Z,61.98
2023-04-10T09:00:22.531Z,62.59
2023-04-10T09:01:09.687Z,63.51
2023-04-10T09:02:09.730Z,63.72
2023-04-10T09:03:09.783Z,63.31
2023-04-10T09:04:09.784Z,62.77
2023-04-10T09:05:09.658Z,62.46
2023-04-10T09:06:09.647Z,62.77
2023-04-10T09:07:09.633Z,62.77
2023-04-10T09:08:09.626Z,62.66
2023-04-10T09:09:09.593Z,62.87
2023-04-10T09:10:09.595Z,63.39
2023-04-10T09:11:09.601Z,63.15
2023-04-10T09:12:09.574Z,62.95
2023-04-10T09:13:09.539Z,62.54
2023-04-10T09:14:09.553Z,62.33
2023-04-10T09:15:09.543Z,61.72
2023-04-10T09:16:09.614Z,61.69
2023-04-10T09:17:09.522Z,61.58
2023-04-10T09:18:09.634Z,61.18
2023-04-10T09:19:09.495Z,61.18
2023-04-10T09:20:09.493Z,61.08
2023-04-10T09:21:09.484Z,61.28
2023-04-10T09:22:09.506Z,60.67
2023-04-10T09:23:09.456Z,60.97
2023-04-10T09:24:09.456Z,61.08
2023-04-10T09:25:09.432Z,60.97
2023-04-10T09:26:09.413Z,60.97
2023-04-10T09:27:09.403Z,60.77
2023-04-10T09:28:09.428Z,60.57
2023-04-10T09:29:09.399Z,59.82
2023-04-10T09:30:09.381Z,59.82
2023-04-10T09:31:09.463Z,60.03
2023-04-10T09:32:09.368Z,60.03
2023-04-10T09:33:09.411Z,60.53
2023-04-10T09:34:09.339Z,60.13
2023-04-10T09:35:09.435Z,60.23
2023-04-10T09:36:09.313Z,60.23
2023-04-10T09:37:09.300Z,61.05
2023-04-10T09:38:09.303Z,60.44
2023-04-10T09:39:09.300Z,60.10
2023-04-10T09:40:09.304Z,59.18
2023-04-10T09:41:09.295Z,58.67
2023-04-10T09:42:09.255Z,58.98
2023-04-10T09:43:09.301Z,58.67
2023-04-10T09:44:09.276Z,58.98
2023-04-10T09:45:09.227Z,57.96
2023-04-10T09:46:09.243Z,58.57
2023-04-10T09:47:09.221Z,58.64
2023-04-10T09:48:09.219Z,59.05
2023-04-10T09:49:09.220Z,59.05
2023-04-10T09:50:09.166Z,57.73
2023-04-10T09:51:09.185Z,57.01
2023-04-10T09:52:09.146Z,56.81
2023-04-10T09:53:09.184Z,56.71
2023-04-10T09:54:09.149Z,56.58
2023-04-10T09:55:09.119Z,56.58
2023-04-10T09:56:09.115Z,55.87
2023-04-10T09:57:09.120Z,56.17
2023-04-10T09:58:09.106Z,56.07
2023-04-10T09:59:09.114Z,55.87
2023-04-10T10:00:09.092Z,55.66
2023-04-10T10:01:09.061Z,55.05
2023-04-10T10:02:09.124Z,54.74
2023-04-10T10:03:09.232Z,54.44
2023-04-10T10:04:09.056Z,55.46
2023-04-10T10:05:09.207Z,56.68
2023-04-10T10:06:09.021Z,55.26
2023-04-10T10:07:09.006Z,55.43
2023-04-10T10:08:08.987Z,55.74
2023-04-10T10:09:08.991Z,55.63
2023-04-10T10:10:09.257Z,55.63
2023-04-10T10:11:08.974Z,54.41
2023-04-10T10:12:08.947Z,54.31
2023-04-10T10:13:08.928Z,54.08
2023-04-10T10:14:08.924Z,54.59
2023-04-10T10:15:09.316Z,53.98
2023-04-10T10:16:08.991Z,53.37
2023-04-10T10:17:08.905Z,53.37
2023-04-10T10:18:08.892Z,53.78
2023-04-10T10:19:08.876Z,53.98
2023-04-10T10:20:08.875Z,53.88
2023-04-10T10:21:08.902Z,53.47
2023-04-10T10:22:08.858Z,53.78
2023-04-10T10:23:08.850Z,53.67
2023-04-10T10:24:08.836Z,53.16
2023-04-10T10:25:08.821Z,53.67
2023-04-10T10:26:08.852Z,54.16
2023-04-10T10:27:08.804Z,53.65
2023-04-10T10:28:08.801Z,53.24
2023-04-10T10:29:08.785Z,53.55
2023-04-10T10:30:25.364Z,53.14
2023-04-10T10:31:08.795Z,52.73
2023-04-10T10:32:08.771Z,51.20
2023-04-10T10:33:08.761Z,52.22
2023-04-10T10:34:08.745Z,53.04
2023-04-10T10:35:08.728Z,52.33
2023-04-10T10:36:08.729Z,52.83
2023-04-10T10:37:08.732Z,52.30
2023-04-10T10:38:08.689Z,52.30
2023-04-10T10:39:08.678Z,52.00
2023-04-10T10:40:08.669Z,51.69
2023-04-10T10:41:08.676Z,51.89
2023-04-10T10:42:08.650Z,50.16
2023-04-10T10:43:08.660Z,51.28
2023-04-10T10:44:08.632Z,51.16
2023-04-10T10:45:08.616Z,51.97
2023-04-10T10:46:08.722Z,51.16
2023-04-10T10:47:08.606Z,51.56
2023-04-10T10:48:08.623Z,51.67
2023-04-10T10:49:08.638Z,51.67
2023-04-10T10:50:08.583Z,52.37
2023-04-10T10:51:08.600Z,51.97
2023-04-10T10:52:08.559Z,51.06
2023-04-10T10:53:08.526Z,50.65
2023-04-10T10:54:08.530Z,51.67
2023-04-10T10:55:08.513Z,51.06
2023-04-10T10:56:08.510Z,49.84
2023-04-10T10:57:08.513Z,50.55
2023-04-10T10:58:08.486Z,50.34
2023-04-10T10:59:08.460Z,50.04
2023-04-10T11:00:08.468Z,49.84
2023-04-10T11:01:10.310Z,49.53
2023-04-10T11:02:08.529Z,50.04
2023-04-10T11:03:08.708Z,50.04
2023-04-10T11:04:08.512Z,50.22
2023-04-10T11:05:08.410Z,50.62
2023-04-10T11:06:08.405Z,50.22
2023-04-10T11:07:08.382Z,49.51
2023-04-10T11:08:08.650Z,49.20
2023-04-10T11:09:08.387Z,48.80
2023-04-10T11:10:08.389Z,48.49
2023-04-10T11:11:08.419Z,48.77
2023-04-10T11:12:08.354Z,49.18
2023-04-10T11:13:08.342Z,48.97
2023-04-10T11:14:08.371Z,48.97
2023-04-10T11:15:08.321Z,48.57
2023-04-10T11:16:08.382Z,48.47
2023-04-10T11:17:08.530Z,48.87
2023-04-10T11:18:08.285Z,49.08
2023-04-10T11:19:14.024Z,48.67
2023-04-10T11:20:08.284Z,48.47
2023-04-10T11:21:08.248Z,49.48
2023-04-10T11:22:08.730Z,48.77
2023-04-10T11:23:08.245Z,47.96
2023-04-10T11:24:08.217Z,47.75
2023-04-10T11:25:08.229Z,48.06
2023-04-10T11:26:08.206Z,48.47
2023-04-10T11:27:08.193Z,48.87
2023-04-10T11:28:08.182Z,47.75
2023-04-10T11:29:08.162Z,47.55
2023-04-10T11:30:08.195Z,47.86
2023-04-10T11:31:08.141Z,48.67
2023-04-10T11:32:08.278Z,47.25
2023-04-10T11:33:08.203Z,47.55
2023-04-10T11:34:08.151Z,47.66
2023-04-10T11:35:08.101Z,47.43
2023-04-10T11:36:08.114Z,48.44
2023-04-10T11:37:08.096Z,47.94
2023-04-10T11:38:08.086Z,48.04
2023-04-10T11:39:08.067Z,48.32
2023-04-10T11:40:08.063Z,47.51
2023-04-10T11:41:08.069Z,46.39
2023-04-10T11:42:08.030Z,46.29
2023-04-10T11:43:08.018Z,46.49
2023-04-10T11:44:08.001Z,47.41
2023-04-10T11:45:07.990Z,46.90
2023-04-10T11:46:08.186Z,46.59
2023-04-10T11:47:07.979Z,46.90
2023-04-10T11:48:08.045Z,46.59
2023-04-10T11:49:07.973Z,46.49
2023-04-10T11:50:07.961Z,46.09
2023-04-10T11:51:07.955Z,45.98
2023-04-10T11:52:07.951Z,46.82
2023-04-10T11:53:07.956Z,47.22
2023-04-10T11:54:07.923Z,47.61
2023-04-10T11:55:07.894Z,47.51
2023-04-10T11:56:07.914Z,47.91
2023-04-10T11:57:07.860Z,48.22
2023-04-10T11:58:07.895Z,47.91
2023-04-10T11:59:08.046Z,48.11
2023-04-10T12:00:07.851Z,46.88
2023-04-10T12:01:07.835Z,46.57
2023-04-10T12:02:08.030Z,47.28
2023-04-10T12:03:08.001Z,46.88
2023-04-10T12:04:08.069Z,46.67
2023-04-10T12:05:07.804Z,46.37
2023-04-10T12:06:07.819Z,46.35
2023-04-10T12:07:07.785Z,46.55
2023-04-10T12:08:07.788Z,46.95
2023-04-10T12:09:08.211Z,46.65
2023-04-10T12:10:07.755Z,46.75
2023-04-10T12:11:07.752Z,46.55
2023-04-10T12:12:07.845Z,45.84
2023-04-10T12:13:07.777Z,45.54
2023-04-10T12:14:07.705Z,46.65
2023-04-10T12:15:07.707Z,45.54
2023-04-10T12:16:07.860Z,45.84
2023-04-10T12:17:07.700Z,46.45
2023-04-10T12:18:07.731Z,46.43
2023-04-10T12:19:07.651Z,46.22
2023-04-10T12:20:07.689Z,46.63
2023-04-10T12:21:08.588Z,46.73
2023-04-10T12:22:07.779Z,46.53
2023-04-10T12:23:07.594Z,46.63
2023-04-10T12:24:07.602Z,47.54
2023-04-10T12:25:07.582Z,46.22
2023-04-10T12:26:07.607Z,46.04
2023-04-10T12:27:07.584Z,47.26
2023-04-10T12:28:07.547Z,46.55
2023-04-10T12:29:07.550Z,45.84
2023-04-10T12:30:07.550Z,47.77
2023-04-10T12:31:07.596Z,47.75
2023-04-10T12:32:07.565Z,46.53
2023-04-10T12:33:07.632Z,45.92
2023-04-10T12:34:09.834Z,46.33
2023-04-10T12:35:07.490Z,45.79
2023-04-10T12:36:07.485Z,45.90
2023-04-10T12:37:07.505Z,46.10
2023-04-10T12:38:07.451Z,46.30
2023-04-10T12:39:07.441Z,46.00
2023-04-10T12:40:07.433Z,46.30
2023-04-10T12:41:07.439Z,46.08
2023-04-10T12:42:07.427Z,46.38
2023-04-10T12:43:07.448Z,46.08
2023-04-10T12:44:07.405Z,46.79
2023-04-10T12:45:07.407Z,45.27
2023-04-10T12:46:07.401Z,45.87
2023-04-10T12:47:07.373Z,45.78
2023-04-10T12:48:07.409Z,45.47
2023-04-10T12:49:07.344Z,44.74
2023-04-10T12:50:07.336Z,44.95
2023-04-10T12:51:07.324Z,44.95
2023-04-10T12:52:07.322Z,45.04